New Washington, Ohio
Current Conditions -  °F | °C
As of 4:52 PM on Thursday 27 Nov 2014 (Local Time) from KMFD Reporting Station
Light Snow Light Snow  
Wind Chill: 20°   Ceiling: 3900
Heat Index: 30°   Visibility: 4mi
Dew Point: 23°   Wind: 13mph
Humidity: 75%   Direction: 270°W
Pressure: 30.18"   Gusts: 18mph
Location:  40.96°N, 82.85°W
Report Text: KMFD 272152Z 27011G16KT 4SM -SN FEW018 SCT023 OVC039 M01/M05 A3018 RMK AO2 SNB2053 SLP236 P0001 T10111050
Loading
Personal Weather Stations






























Interactive Weather Map New forecast layout! Learn more

10-Day Weather Forecast

Advertisements
Track Severe Weather on mobile